Decoded Metar for KIXD (OLATHE/INDUSTRIA in KS, USA) (IATA:IXD) | Meteo·Mobile Aviation Weather
aviador You're here:

KIXD Decoded Metar

OLATHE/INDUSTRIA in KS, USA
Report Time2018-12-11 01:53:00
UTC Time2018-12-11 03:01:34
Flight Rules Old
Wind190° at 03 kt
W.Decomp.*RWY 18: 3.0 kt HW 0.3 kt RCW
RWY 22: 2.5 kt HW 1.7 kt LCW
W.Rank190° ranks 4
Current wind is below 190° avg. (10.8)
Visibility9999 m
Phenomena:N/A
Clouds:N/A
Expected CloudBase > 1,200 ft AGL from Temp-Dew spread
CeilingNone
Temp-2°C (ISA -15)
Dew Point-5°C (80% RH)
AAT-5.7°C
QNH1025 hPa
Density Alt-1,033 ft
Elevation1,122 ft
Report Wrong Elevation
Raw Report
KIXD 110153Z 19003KT 10SM CLR M02/M05 A3026 RMK AO2 SLP258
T10171050=

Extra information for KIXD:More info

Metar Taf Metar & Taf Last 4 Metars F.Rules Stats Wind Profile Meteogram Temp Stats Airport Information Weather charts Add Link Nearby VenuesMetar ALERT Operation Metar Decoded Social comments

AIRNAV info for KIXD